Terminal Aerodrome Forecast
Issued by NWS Wilmington, NC

Home | Current Version | Previous Version | Text Only | Print | Product List | Glossary On
Versions: 1 2 3 4 5 6 7 8 9 10 11 12 13 14 15 16 17 18 19 20 21 22 23 24
304
FTUS42 KILM 301006 AAB
TAFFLO
TAF AMD
KFLO 301006Z 3010/3106 20004KT 6SM BR SCT003 BKN060
      TEMPO 3010/3011 3SM BR BKN003
     FM301100 00000KT P6SM BKN090
     FM301700 28010KT P6SM SCT050 BKN150
     FM310100 00000KT P6SM BKN150=

USA.gov is the U.S. government's official web portal to all federal, state and local government web resources and services.